Deerhorn Valley (67) Station Data

Red Flag Warning: No
Fire Weather Zone: 250
SDGE Region: Mountain Empire
Lat/Lon: 32.687/-116.762

Observations

Time Wind Speed/Gust Temp(F) RH Fuel Moist Fuel Temp(F) Dewpt(F) Tmax(F) Tmin(F) Accum Precip 10-min Precip SL Press(mb)
4/29 11:50pm 94 2 G 4 61° 14% - - 12° 75.2° 58.1° - - -
4/29 11:40pm 116 2 G 5 61° 15% - - 13° 75.2° 58.1° - - -
4/29 11:30pm 115 3 G 4 62° 15% - - 13° 75.2° 58.1° - - -
4/29 11:20pm 120 2 G 4 62° 15% - - 14° 75.2° 58.1° - - -
4/29 11:10pm 102 1 G 3 62° 15% - - 13° 75.2° 58.1° - - -
4/29 11:00pm 103 1 G 3 61° 17% - - 16° 75.2° 58.1° - - -
4/29 10:50pm 68 1 G 4 59° 20% - - 18° 75.2° 58.1° - - -
4/29 10:40pm 129 2 G 4 59° 22% - - 20° 75.2° 58.1° - - -
4/29 10:30pm 141 3 G 5 60° 20% - - 19° 75.2° 58.1° - - -
4/29 10:20pm 232 2 G 5 61° 19% - - 19° 75.2° 58.1° - - -
4/29 10:10pm 324 2 G 5 60° 20% - - 19° 75.2° 58.1° - - -
4/29 10:00pm 179 1 G 3 61° 18% - - 18° 75.2° 58.1° - - -
4/29 9:50pm 330 3 G 5 61° 19% - - 18° 75.2° 58.1° - - -
4/29 9:40pm 308 1 G 2 59° 20% - - 18° 75.2° 58.1° - - -
4/29 9:30pm 337 1 G 3 59° 20% - - 18° 75.2° 58.1° - - -
4/29 9:20pm 72 1 G 3 61° 19% - - 18° 75.2° 58.1° - - -
4/29 9:10pm 12 3 G 6 60° 20% - - 19° 75.2° 58.1° - - -
4/29 9:00pm 323 2 G 7 60° 19% - - 18° 75.2° 58.1° - - -
4/29 8:50pm 328 2 G 5 60° 19% - - 17° 75.2° 58.1° - - -
4/29 8:40pm 21 1 G 4 60° 19% - - 18° 75.2° 58.1° - - -
4/29 8:30pm 284 5 G 6 62° 17% - - 17° 75.2° 58.1° - - -
4/29 8:20pm 285 5 G 7 63° 16% - - 16° 75.2° 58.1° - - -
4/29 8:10pm 272 3 G 5 63° 15% - - 15° 75.2° 58.1° - - -
4/29 8:00pm 261 2 G 4 63° 15% - - 15° 75.2° 58.1° - - -
4/29 7:50pm 312 4 G 7 63° 16% - - 16° 75.2° 58.1° - - -
4/29 7:40pm 280 3 G 5 63° 16% - - 16° 75.2° 58.1° - - -
4/29 7:30pm 239 3 G 6 64° 15% - - 15° 75.2° 58.1° - - -
4/29 7:20pm 271 3 G 7 64° 14% - - 14° 75.2° 58.1° - - -
4/29 7:10pm 286 5 G 10 65° 13% - - 14° 75.2° 58.1° - - -
4/29 7:00pm 279 6 G 10 66° 13% - - 14° 75.2° 58.1° - - -
4/29 6:50pm 288 6 G 10 67° 13% - - 15° 75.2° 58.1° - - -
4/29 6:40pm 275 7 G 12 68° 13% - - 14° 75.2° 58.1° - - -
4/29 6:30pm 275 9 G 16 68° 12% - - 14° 75.2° 58.1° - - -
4/29 6:20pm 290 7 G 11 69° 12% - - 14° 75.2° 58.1° - - -
4/29 6:10pm 282 9 G 14 69° 12% - - 14° 75.2° 58.1° - - -
4/29 6:00pm 286 10 G 17 69° 12% - - 15° 75.2° 58.1° - - -
4/29 5:50pm 282 11 G 17 70° 12% - - 16° 75.2° 58.1° - - -
4/29 5:40pm 273 9 G 14 70° 13% - - 16° 75.2° 58.1° - - -
4/29 5:30pm 270 9 G 16 71° 13% - - 16° 75.2° 58.1° - - -
4/29 5:20pm 261 11 G 18 70° 13% - - 16° 75.2° 58.1° - - -
4/29 5:10pm 272 10 G 19 71° 13% - - 17° 75.2° 58.1° - - -
4/29 5:00pm 300 7 G 12 71° 13% - - 17° 75.2° 58.1° - - -
4/29 4:50pm 260 10 G 16 71° 12% - - 16° 75.2° 58.1° - - -
4/29 4:40pm 270 9 G 13 72° 12% - - 17° 75.2° 58.1° - - -
4/29 4:30pm 272 9 G 15 72° 12% - - 16° 75.2° 58.1° - - -
4/29 4:20pm 250 9 G 17 72° 12% - - 16° 75.2° 58.1° - - -
4/29 4:10pm 256 9 G 16 72° 12% - - 17° 75.2° 58.1° - - -
4/29 4:00pm 247 10 G 19 72° 12% - - 16° 75.2° 58.1° - - -
4/29 3:50pm 240 12 G 23 72° 12% - - 17° 75.2° 58.1° - - -
4/29 3:40pm 225 8 G 17 73° 11% - - 16° 75.2° 58.1° - - -
4/29 3:30pm 280 4 G 9 74° 10% - - 14° 75.2° 58.1° - - -
4/29 3:20pm 5 7 G 12 74° 7% - - 75.2° 58.1° - - -
4/29 3:10pm 317 5 G 12 74° 7% - - 75.2° 58.1° - - -
4/29 3:00pm 9 10 G 18 74° 7% - - 75.2° 58.1° - - -
4/29 2:50pm 356 4 G 11 74° 8% - - 75.1° 58.1° - - -
4/29 2:40pm 31 7 G 15 74° 8% - - 10° 74.8° 58.1° - - -
4/29 2:30pm 356 5 G 11 73° 8% - - 73.9° 58.1° - - -
4/29 2:20pm 8 5 G 11 73° 8% - - 73.8° 58.1° - - -
4/29 2:10pm 46 7 G 13 73° 9% - - 10° 73.5° 58.1° - - -
4/29 2:00pm 60 8 G 14 72° 9% - - 10° 73.5° 58.1° - - -
4/29 1:50pm 22 8 G 17 72° 9% - - 10° 73° 58.1° - - -
4/29 1:40pm 9 6 G 13 72° 9% - - 72.7° 58.1° - - -
4/29 1:30pm 32 5 G 11 72° 8% - - 72.7° 58.1° - - -
4/29 1:20pm 34 7 G 15 72° 9% - - 72.7° 58.1° - - -
4/29 1:10pm 32 4 G 12 72° 8% - - 72.3° 58.1° - - -
4/29 1:00pm 81 9 G 17 71° 9% - - 72.3° 58.1° - - -
4/29 12:50pm 85 12 G 19 70° 9% - - 72.2° 58.1° - - -
4/29 12:40pm 57 12 G 20 70° 9% - - 72.2° 58.1° - - -
4/29 12:30pm 78 12 G 22 71° 9% - - 72.2° 58.1° - - -
4/29 12:20pm 57 10 G 19 71° 9% - - 72.2° 58.1° - - -
4/29 12:10pm 63 9 G 18 70° 9% - - 72° 58.1° - - -
4/29 12:00pm 68 10 G 18 70° 8% - - 72° 58.1° - - -
4/29 11:50am 57 5 G 10 71° 8% - - 72° 58.1° - - -
4/29 11:40am 332 4 G 13 71° 9% - - 11° 72° 58.1° - - -
4/29 11:30am 274 5 G 10 71° 10% - - 12° 71.6° 58.1° - - -
4/29 11:20am 349 5 G 10 70° 10% - - 11° 71.6° 58.1° - - -
4/29 11:10am 318 5 G 11 70° 10% - - 10° 70.7° 58.1° - - -
4/29 11:00am 317 6 G 13 70° 9% - - 70.7° 58.1° - - -
4/29 10:50am 42 6 G 11 70° 10% - - 10° 70.7° 58.1° - - -
4/29 10:40am 98 6 G 16 69° 11% - - 12° 70.4° 58.1° - - -
4/29 10:30am 88 7 G 12 69° 11% - - 11° 70.4° 58.1° - - -
4/29 10:20am 54 5 G 11 70° 11% - - 12° 70.2° 58.1° - - -
4/29 10:10am 111 7 G 14 68° 11% - - 12° 69.4° 58.1° - - -
4/29 10:00am 102 8 G 13 69° 11% - - 13° 69.4° 58.1° - - -
4/29 9:50am 92 7 G 12 68° 11% - - 12° 68.6° 58.1° - - -
4/29 9:40am 97 5 G 10 67° 11% - - 11° 68° 58.1° - - -
4/29 9:30am 77 4 G 10 66° 11% - - 67.4° 58.1° - - -
4/29 9:20am 81 8 G 14 66° 11% - - 66.5° 58.1° - - -
4/29 9:10am 81 8 G 13 65° 11% - - 10° 66.2° 58.1° - - -
4/29 9:00am 86 8 G 13 65° 12% - - 10° 65.8° 58.1° - - -
4/29 8:50am 75 10 G 14 64° 12% - - 10° 64.5° 58.1° - - -
4/29 8:40am 71 10 G 15 63° 12% - - 10° 63.8° 58.1° - - -
4/29 8:30am 68 10 G 14 63° 12% - - 63° 58.1° - - -
4/29 8:20am 60 9 G 15 63° 12% - - 63° 58.1° - - -
4/29 8:10am 66 11 G 15 62° 12% - - 62.4° 58.1° - - -
4/29 8:00am 76 11 G 16 62° 12% - - 62.4° 58.1° - - -
4/29 7:50am 64 11 G 18 61° 12% - - 62.4° 58.1° - - -
4/29 7:40am 63 13 G 20 61° 11% - - 62.4° 58.1° - - -
4/29 7:30am 64 14 G 22 60° 11% - - 62.4° 58.1° - - -
4/29 7:20am 62 14 G 21 60° 12% - - 62.4° 58.1° - - -
4/29 7:10am 62 14 G 19 60° 12% - - 62.4° 58.1° - - -
4/29 7:00am 62 14 G 21 59° 12% - - 62.4° 58.1° - - -
4/29 6:50am 61 15 G 25 59° 12% - - 62.4° 58.1° - - -
4/29 6:40am 63 16 G 25 59° 11% - - 62.4° 58.1° - - -
4/29 6:30am 62 18 G 26 59° 11% - - 62.4° 58.1° - - -
4/29 6:20am 62 14 G 24 59° 11% - - 62.4° 58.1° - - -
4/29 6:10am 63 16 G 26 59° 12% - - 62.4° 58.1° - - -
4/29 6:00am 61 12 G 22 59° 12% - - 62.4° 58.1° - - -
4/29 5:50am 67 14 G 23 59° 12% - - 62.4° 58.6° - - -
4/29 5:40am 68 14 G 23 59° 12% - - 62.4° 58.6° - - -
4/29 5:30am 71 13 G 22 59° 12% - - 62.4° 58.6° - - -
4/29 5:20am 68 15 G 24 59° 12% - - 62.4° 58.9° - - -
4/29 5:10am 70 15 G 23 59° 12% - - 62.4° 58.9° - - -
4/29 5:00am 66 15 G 25 59° 12% - - 62.4° 58.9° - - -
4/29 4:50am 66 15 G 23 60° 12% - - 62.4° 58.9° - - -
4/29 4:40am 65 15 G 25 60° 13% - - 62.4° 58.9° - - -
4/29 4:30am 65 14 G 22 60° 13% - - 62.4° 58.9° - - -
4/29 4:20am 63 13 G 21 60° 13% - - 62.4° 58.9° - - -
4/29 4:10am 66 14 G 20 60° 13% - - 62.4° 58.9° - - -
4/29 4:00am 65 13 G 21 60° 13% - - 62.4° 58.9° - - -
4/29 3:50am 68 13 G 22 60° 13% - - 62.4° 58.9° - - -
4/29 3:40am 64 12 G 17 59° 14% - - 10° 62.4° 58.9° - - -
4/29 3:30am 65 12 G 18 60° 14% - - 10° 62.4° 59.3° - - -
4/29 3:20am 67 12 G 17 60° 13% - - 10° 62.4° 59.6° - - -
4/29 3:10am 64 13 G 17 60° 13% - - 10° 62.4° 59.7° - - -
4/29 3:00am 63 12 G 17 60° 13% - - 62.4° 59.7° - - -
4/29 2:50am 67 11 G 17 60° 13% - - 10° 62.4° 59.7° - - -
4/29 2:40am 67 11 G 15 60° 13% - - 62.4° 59.7° - - -
4/29 2:30am 70 11 G 15 60° 13% - - 10° 62.4° 59.7° - - -
4/29 2:20am 68 10 G 15 60° 14% - - 10° 62.4° 59.7° - - -
4/29 2:10am 68 9 G 13 60° 14% - - 11° 62.4° 59.7° - - -
4/29 2:00am 63 9 G 12 61° 14% - - 11° 62.4° 59.7° - - -
4/29 1:50am 55 11 G 15 62° 13% - - 10° 62.4° 60.9° - - -
4/29 1:40am 54 10 G 15 62° 13% - - 11° 62.4° 60.9° - - -
4/29 1:30am 51 8 G 12 62° 13% - - 11° 62.4° 60.9° - - -
4/29 1:20am 52 7 G 11 61° 14% - - 12° 62.4° 60.9° - - -
4/29 1:10am 43 7 G 11 62° 14% - - 12° 62.4° 60.9° - - -
4/29 1:00am 31 5 G 9 62° 16% - - 15° 62.4° 60.9° - - -
4/29 12:50am 29 6 G 10 62° 18% - - 18° 62.4° 60.9° - - -
4/29 12:40am 38 7 G 12 62° 18% - - 19° 62.4° 60.9° - - -
4/29 12:30am 44 7 G 11 62° 20% - - 20° 62° 60.9° - - -
4/29 12:20am 43 7 G 12 62° 20% - - 21° 61.9° 60.9° - - -
4/29 12:10am 44 7 G 12 61° 24% - - 24° 61.8° 60.9° - - -
4/29 12:00am 37 6 G 12 60° 32% - - 30° 69.1° 50.9° - - -
4/28 11:50pm 45 5 G 10 60° 34% - - 32° 69.1° 50.9° - - -
4/28 11:40pm 62 4 G 7 61° 35% - - 33° 69.1° 50.9° - - -
4/28 11:30pm 53 4 G 8 60° 37% - - 34° 69.1° 50.9° - - -
4/28 11:20pm 24 5 G 7 60° 38% - - 35° 69.1° 50.9° - - -
4/28 11:10pm 31 5 G 7 60° 36% - - 34° 69.1° 50.9° - - -
4/28 11:00pm 39 4 G 6 61° 33% - - 32° 69.1° 50.9° - - -
4/28 10:50pm 98 4 G 6 59° 37% - - 33° 69.1° 50.9° - - -
4/28 10:40pm 106 3 G 6 59° 39% - - 34° 69.1° 50.9° - - -
4/28 10:30pm 35 5 G 10 62° 32% - - 32° 69.1° 50.9° - - -
4/28 10:20pm 26 5 G 10 60° 37% - - 34° 69.1° 50.9° - - -
4/28 10:10pm 29 5 G 9 58° 40% - - 34° 69.1° 50.9° - - -
4/28 10:00pm 50 6 G 9 57° 39% - - 33° 69.1° 50.9° - - -
4/28 9:50pm 73 4 G 8 57° 38% - - 32° 69.1° 50.9° - - -
4/28 9:40pm 251 1 G 3 58° 37% - - 32° 69.1° 50.9° - - -
4/28 9:30pm 286 1 G 3 57° 39% - - 32° 69.1° 50.9° - - -
4/28 9:20pm 190 1 G 2 57° 41% - - 33° 69.1° 50.9° - - -
4/28 9:10pm 209 3 G 4 56° 44% - - 34° 69.1° 50.9° - - -
4/28 9:00pm 114 3 G 6 58° 40% - - 33° 69.1° 50.9° - - -
4/28 8:50pm 9 3 G 8 58° 40% - - 33° 69.1° 50.9° - - -
4/28 8:40pm 49 2 G 5 57° 44% - - 36° 69.1° 50.9° - - -
4/28 8:30pm 321 4 G 8 58° 39% - - 33° 69.1° 50.9° - - -
4/28 8:20pm 294 4 G 9 58° 39% - - 33° 69.1° 50.9° - - -
4/28 8:10pm 286 6 G 11 58° 39% - - 33° 69.1° 50.9° - - -
4/28 8:00pm 322 3 G 8 58° 41% - - 34° 69.1° 50.9° - - -
4/28 7:50pm 320 5 G 9 59° 40% - - 34° 69.1° 50.9° - - -
4/28 7:40pm 301 5 G 11 59° 42% - - 36° 69.1° 50.9° - - -
4/28 7:30pm 273 3 G 8 60° 45% - - 39° 69.1° 50.9° - - -
4/28 7:20pm 281 6 G 11 60° 44% - - 39° 69.1° 50.9° - - -
4/28 7:10pm 285 7 G 11 61° 41% - - 37° 69.1° 50.9° - - -
4/28 7:00pm 274 8 G 16 62° 38% - - 36° 69.1° 50.9° - - -
4/28 6:50pm 293 7 G 13 62° 36% - - 35° 69.1° 50.9° - - -
4/28 6:40pm 302 9 G 16 62° 36% - - 35° 69.1° 50.9° - - -
4/28 6:30pm 290 10 G 16 62° 36% - - 35° 69.1° 50.9° - - -
4/28 6:20pm 280 8 G 13 63° 37% - - 36° 69.1° 50.9° - - -
4/28 6:10pm 286 8 G 16 63° 37% - - 36° 69.1° 50.9° - - -
4/28 6:00pm 291 8 G 14 64° 36% - - 36° 69.1° 50.9° - - -